createdAt,value
2024-04-19T00:02:02.693Z,4.78
2024-04-19T00:04:29.657Z,3.00
2024-04-19T00:06:56.785Z,4.80
2024-04-19T00:09:23.671Z,5.32
2024-04-19T00:11:50.640Z,7.03
2024-04-19T00:14:17.543Z,3.80
2024-04-19T00:16:44.847Z,5.50
2024-04-19T00:19:11.762Z,4.85
2024-04-19T00:21:38.655Z,5.22
2024-04-19T00:24:05.746Z,3.63
2024-04-19T00:26:32.606Z,5.40
2024-04-19T00:28:59.454Z,5.30
2024-04-19T00:31:26.316Z,5.25
2024-04-19T00:33:53.339Z,5.75
2024-04-19T00:36:20.341Z,4.55
2024-04-19T00:38:47.194Z,6.07
2024-04-19T00:41:14.044Z,4.38
2024-04-19T00:43:40.903Z,6.10
2024-04-19T00:46:08.792Z,7.78
2024-04-19T00:48:36.265Z,9.35
2024-04-19T00:51:05.970Z,6.63
2024-04-19T00:53:34.063Z,7.20
2024-04-19T00:56:02.656Z,4.82
2024-04-19T00:58:30.692Z,9.27
2024-04-19T01:01:03.558Z,7.82
2024-04-19T01:03:30.586Z,6.10
2024-04-19T01:05:57.832Z,7.63
2024-04-19T01:08:25.533Z,6.78
2024-04-19T01:10:52.777Z,6.97
2024-04-19T01:13:20.299Z,5.47
2024-04-19T01:15:49.466Z,5.30
2024-04-19T01:18:16.586Z,5.43
2024-04-19T01:20:44.727Z,7.32
2024-04-19T01:23:15.595Z,7.50
2024-04-19T01:25:44.082Z,6.90
2024-04-19T01:28:12.300Z,5.82
2024-04-19T01:30:44.149Z,4.45
2024-04-19T01:33:12.264Z,6.13
2024-04-19T01:35:39.765Z,6.03
2024-04-19T01:38:06.589Z,6.28
2024-04-19T01:40:33.337Z,6.07
2024-04-19T01:43:00.222Z,5.30
2024-04-19T01:45:27.041Z,6.10
2024-04-19T01:47:53.844Z,6.35
2024-04-19T01:50:20.654Z,6.22
2024-04-19T01:52:47.622Z,5.63
2024-04-19T01:55:16.168Z,7.13
2024-04-19T01:57:43.544Z,7.45
2024-04-19T02:00:11.333Z,6.22
2024-04-19T02:02:38.062Z,7.90
2024-04-19T02:05:05.082Z,10.68
2024-04-19T02:07:31.913Z,8.52
2024-04-19T02:09:59.518Z,9.50
2024-04-19T02:12:26.381Z,10.15
2024-04-19T02:14:54.441Z,7.82
2024-04-19T02:17:21.271Z,8.23
2024-04-19T02:19:48.043Z,7.60
2024-04-19T02:22:15.306Z,8.13
2024-04-19T02:24:42.256Z,10.13
2024-04-19T02:27:29.156Z,8.15
2024-04-19T02:30:15.013Z,9.82
2024-04-19T02:32:41.811Z,10.10
2024-04-19T02:35:08.551Z,8.65
2024-04-19T02:37:35.280Z,10.00
2024-04-19T02:40:02.021Z,9.45
2024-04-19T02:42:28.902Z,10.05
2024-04-19T02:44:55.614Z,8.00
2024-04-19T02:47:22.380Z,7.13
2024-04-19T02:49:49.109Z,7.93
2024-04-19T02:52:15.830Z,10.40
2024-04-19T02:54:42.926Z,9.77
2024-04-19T02:57:09.706Z,8.40
2024-04-19T02:59:36.442Z,9.88
2024-04-19T03:02:03.148Z,9.52
2024-04-19T03:04:29.938Z,10.40
2024-04-19T03:06:56.662Z,9.20
2024-04-19T03:09:23.408Z,8.10
2024-04-19T03:11:51.707Z,9.60
2024-04-19T03:14:20.130Z,8.68
2024-04-19T03:16:46.874Z,13.63
2024-04-19T03:19:13.652Z,10.68
2024-04-19T03:21:40.447Z,13.35
2024-04-19T03:24:07.197Z,10.43
2024-04-19T03:26:37.495Z,9.27
2024-04-19T03:29:04.483Z,10.00
2024-04-19T03:31:31.225Z,10.30
2024-04-19T03:33:58.564Z,11.80
2024-04-19T03:36:26.125Z,13.40
2024-04-19T03:38:52.911Z,11.55
2024-04-19T03:41:19.986Z,12.32
2024-04-19T03:44:07.075Z,13.65
2024-04-19T03:46:33.859Z,15.95
2024-04-19T03:49:00.801Z,16.08
2024-04-19T03:51:27.678Z,12.00
2024-04-19T03:53:54.395Z,11.48
2024-04-19T03:56:21.571Z,10.70
2024-04-19T03:58:48.674Z,11.20
2024-04-19T04:01:15.500Z,12.07
2024-04-19T04:03:42.235Z,12.93
2024-04-19T04:06:09.012Z,12.27
2024-04-19T04:08:35.801Z,12.05
2024-04-19T04:11:02.707Z,11.82
2024-04-19T04:13:30.394Z,11.40
2024-04-19T04:15:57.433Z,11.27
2024-04-19T04:18:24.310Z,11.93
2024-04-19T04:20:51.257Z,11.50
2024-04-19T04:23:18.123Z,10.95
2024-04-19T04:25:45.119Z,10.77
2024-04-19T04:28:11.921Z,9.82
2024-04-19T04:30:42.444Z,10.55
2024-04-19T04:33:10.082Z,12.45
2024-04-19T04:35:39.867Z,10.88
2024-04-19T04:38:07.793Z,11.32
2024-04-19T04:40:35.080Z,10.43
2024-04-19T04:43:01.967Z,11.63
2024-04-19T04:45:32.635Z,11.13
2024-04-19T04:47:59.757Z,10.68
2024-04-19T04:50:26.570Z,12.52
2024-04-19T04:52:55.058Z,11.75
2024-04-19T04:55:21.767Z,10.77
2024-04-19T04:57:48.730Z,11.13
2024-04-19T05:00:15.724Z,10.77
2024-04-19T05:02:42.464Z,11.15
2024-04-19T05:05:09.224Z,10.57
2024-04-19T05:07:35.963Z,10.40
2024-04-19T05:10:02.830Z,11.20
2024-04-19T05:12:30.450Z,10.65
2024-04-19T05:14:57.280Z,11.73
2024-04-19T05:17:24.079Z,11.88
2024-04-19T05:19:50.806Z,9.93
2024-04-19T05:22:17.561Z,10.55
2024-04-19T05:24:46.749Z,11.15
2024-04-19T05:27:13.686Z,12.00
2024-04-19T05:29:40.443Z,10.50
2024-04-19T05:32:07.460Z,11.70
2024-04-19T05:34:36.707Z,11.35
2024-04-19T05:37:04.013Z,11.60
2024-04-19T05:39:30.932Z,11.63
2024-04-19T05:42:01.537Z,10.90
2024-04-19T05:44:32.627Z,11.13
2024-04-19T05:46:59.949Z,10.43
2024-04-19T05:49:26.973Z,10.75
2024-04-19T05:51:54.141Z,10.70
2024-04-19T05:54:21.066Z,9.90
2024-04-19T05:56:47.805Z,9.88
2024-04-19T05:59:32.124Z,9.18
2024-04-19T06:01:59.033Z,10.15
2024-04-19T06:04:25.827Z,8.85
2024-04-19T06:06:52.633Z,9.52
2024-04-19T06:09:20.328Z,9.02
2024-04-19T06:11:47.171Z,9.70
2024-04-19T06:14:13.901Z,8.85
2024-04-19T06:16:40.657Z,8.73
2024-04-19T06:19:07.510Z,8.52
2024-04-19T06:21:34.366Z,9.23
2024-04-19T06:24:01.237Z,8.23
2024-04-19T06:26:28.427Z,8.40
2024-04-19T06:28:55.235Z,8.38
2024-04-19T06:31:22.198Z,8.07
2024-04-19T06:33:49.346Z,7.68
2024-04-19T06:36:16.392Z,6.78
2024-04-19T06:38:43.468Z,6.97
2024-04-19T06:41:10.362Z,7.70
2024-04-19T06:43:37.172Z,7.00
2024-04-19T06:46:04.158Z,7.70
2024-04-19T06:48:31.169Z,6.88
2024-04-19T06:50:57.996Z,6.93
2024-04-19T06:53:24.962Z,6.53
2024-04-19T06:55:54.019Z,5.85
2024-04-19T06:58:20.889Z,6.10
2024-04-19T07:01:00.206Z,4.68
2024-04-19T07:03:35.877Z,7.22
2024-04-19T07:06:19.991Z,5.65
2024-04-19T07:08:53.788Z,5.88
2024-04-19T07:11:20.623Z,4.75
2024-04-19T07:13:47.781Z,5.70
2024-04-19T07:16:15.212Z,5.57
2024-04-19T07:18:42.239Z,5.60
2024-04-19T07:21:09.066Z,6.68
2024-04-19T07:23:35.828Z,6.00
2024-04-19T07:26:02.623Z,4.10
2024-04-19T07:28:29.434Z,5.30
2024-04-19T07:30:56.984Z,5.68
2024-04-19T07:33:23.775Z,5.38
2024-04-19T07:35:50.525Z,6.22
2024-04-19T07:38:17.322Z,4.57
2024-04-19T07:40:44.091Z,7.57
2024-04-19T07:43:10.972Z,6.35
2024-04-19T07:45:38.375Z,5.28
2024-04-19T07:48:06.033Z,5.85
2024-04-19T07:50:32.952Z,4.97
2024-04-19T07:52:59.779Z,4.18
2024-04-19T07:55:26.541Z,6.20
2024-04-19T07:57:53.441Z,6.18
2024-04-19T08:00:22.612Z,4.30
2024-04-19T08:02:49.479Z,6.55
2024-04-19T08:05:18.517Z,5.25
2024-04-19T08:07:45.268Z,2.42
2024-04-19T08:10:17.150Z,5.80
2024-04-19T08:12:47.375Z,3.20
2024-04-19T08:15:14.710Z,3.42
2024-04-19T08:17:42.379Z,2.25
2024-04-19T08:20:10.066Z,3.00
2024-04-19T08:22:37.297Z,2.38
2024-04-19T08:25:04.402Z,3.95
2024-04-19T08:27:31.247Z,2.80
2024-04-19T08:29:58.215Z,4.88
2024-04-19T08:32:25.047Z,6.30
2024-04-19T08:34:57.099Z,3.20
2024-04-19T08:37:24.868Z,2.35
2024-04-19T08:39:53.112Z,3.13
2024-04-19T08:42:21.463Z,4.20
2024-04-19T08:44:49.869Z,3.83
2024-04-19T08:47:17.758Z,1.33
2024-04-19T08:49:45.860Z,3.03
2024-04-19T08:52:29.807Z,2.38
2024-04-19T08:55:06.397Z,3.47
2024-04-19T08:57:37.169Z,5.30
2024-04-19T09:00:12.649Z,3.00
2024-04-19T09:02:41.785Z,4.28
2024-04-19T09:05:08.685Z,3.55
2024-04-19T09:07:36.319Z,4.20
2024-04-19T09:10:05.293Z,2.83
2024-04-19T09:12:33.623Z,3.22
2024-04-19T09:15:01.695Z,2.17
2024-04-19T09:17:29.062Z,3.58
2024-04-19T09:19:58.145Z,2.42
2024-04-19T09:22:25.266Z,2.10
2024-04-19T09:24:55.907Z,2.38
2024-04-19T09:27:24.295Z,4.55
2024-04-19T09:29:52.247Z,3.33
2024-04-19T09:32:26.477Z,3.47
2024-04-19T09:34:53.397Z,3.17
2024-04-19T09:37:21.765Z,1.40
2024-04-19T09:39:49.014Z,3.25
2024-04-19T09:42:17.566Z,2.80
2024-04-19T09:44:49.560Z,4.00
2024-04-19T09:47:17.589Z,4.95
2024-04-19T09:49:48.134Z,3.65
2024-04-19T09:52:25.964Z,3.40
2024-04-19T09:55:09.927Z,5.50
2024-04-19T09:57:37.224Z,4.43
2024-04-19T10:00:04.831Z,2.90
2024-04-19T10:02:36.718Z,4.82
2024-04-19T10:05:06.835Z,4.60
2024-04-19T10:07:35.114Z,3.42
2024-04-19T10:10:04.148Z,4.95
2024-04-19T10:12:36.051Z,3.55
2024-04-19T10:15:03.445Z,3.15
2024-04-19T10:17:30.541Z,3.80
2024-04-19T10:19:57.617Z,2.08
2024-04-19T10:22:25.210Z,4.43
2024-04-19T10:24:59.763Z,1.65
2024-04-19T10:27:28.805Z,2.35
2024-04-19T10:29:58.024Z,3.55
2024-04-19T10:32:24.977Z,4.05
2024-04-19T10:34:55.035Z,3.63
2024-04-19T10:37:21.928Z,4.55
2024-04-19T10:39:48.882Z,3.53
2024-04-19T10:42:20.959Z,6.82
2024-04-19T10:44:50.261Z,2.38
2024-04-19T10:47:17.838Z,3.22
2024-04-19T10:49:48.704Z,5.35
2024-04-19T10:52:21.404Z,3.08
2024-04-19T10:54:48.330Z,4.43
2024-04-19T10:57:15.223Z,2.97
2024-04-19T10:59:42.062Z,2.38
2024-04-19T11:02:09.469Z,4.28
2024-04-19T11:04:37.152Z,4.32
2024-04-19T11:07:05.023Z,5.40
2024-04-19T11:09:33.449Z,2.42
2024-04-19T11:12:00.688Z,4.82
2024-04-19T11:14:30.184Z,2.00
2024-04-19T11:16:57.115Z,4.18
2024-04-19T11:19:26.069Z,3.53
2024-04-19T11:21:54.763Z,5.15
2024-04-19T11:24:21.841Z,3.85
2024-04-19T11:26:49.086Z,5.57
2024-04-19T11:29:15.966Z,5.90
2024-04-19T11:31:43.218Z,4.13
2024-04-19T11:34:10.740Z,4.53
2024-04-19T11:36:37.931Z,3.30
2024-04-19T11:39:04.950Z,5.53
2024-04-19T11:41:31.966Z,4.38
2024-04-19T11:44:00.690Z,4.82
2024-04-19T11:46:30.301Z,5.10
2024-04-19T11:49:00.432Z,5.05
2024-04-19T11:51:28.034Z,3.95
2024-04-19T11:53:54.864Z,3.60
2024-04-19T11:56:22.205Z,2.03
2024-04-19T11:58:55.524Z,3.47
2024-04-19T12:01:26.460Z,8.20
2024-04-19T12:03:53.919Z,3.28
2024-04-19T12:06:22.686Z,4.75
2024-04-19T12:08:54.644Z,3.40
2024-04-19T12:11:24.392Z,3.95
2024-04-19T12:14:39.307Z,5.57
2024-04-19T12:16:45.546Z,2.67
2024-04-19T12:19:17.535Z,5.47
2024-04-19T12:21:47.368Z,5.78
2024-04-19T12:24:16.045Z,6.50
2024-04-19T12:26:44.495Z,5.72
2024-04-19T12:29:11.780Z,5.20
2024-04-19T12:31:38.699Z,5.43
2024-04-19T12:34:06.567Z,4.95
2024-04-19T12:36:33.878Z,5.03
2024-04-19T12:39:01.777Z,6.68
2024-04-19T12:41:33.366Z,6.03
2024-04-19T12:44:01.378Z,4.43
2024-04-19T12:46:28.228Z,7.28
2024-04-19T12:49:09.183Z,5.88
2024-04-19T12:51:36.078Z,5.07
2024-04-19T12:54:03.923Z,9.05
2024-04-19T12:56:31.060Z,7.28
2024-04-19T12:58:58.295Z,7.60
2024-04-19T13:01:25.251Z,6.15
2024-04-19T13:03:52.504Z,7.22
2024-04-19T13:06:19.752Z,5.78
2024-04-19T13:08:47.020Z,3.53
2024-04-19T13:11:13.792Z,3.33
2024-04-19T13:13:51.918Z,5.82
2024-04-19T13:16:18.766Z,6.07
2024-04-19T13:18:45.706Z,4.80
2024-04-19T13:21:12.541Z,5.18
2024-04-19T13:23:39.303Z,6.03
2024-04-19T13:26:07.303Z,7.30
2024-04-19T13:28:34.110Z,7.05
2024-04-19T13:31:01.166Z,7.85
2024-04-19T13:33:28.267Z,4.85
2024-04-19T13:35:55.659Z,4.80
2024-04-19T13:38:24.528Z,5.13
2024-04-19T13:40:51.462Z,6.63
2024-04-19T13:43:18.695Z,7.20
2024-04-19T13:45:46.640Z,11.02
2024-04-19T13:48:13.563Z,5.60
2024-04-19T13:50:40.539Z,4.45
2024-04-19T13:53:07.391Z,3.90
2024-04-19T13:55:35.073Z,6.32
2024-04-19T13:58:02.362Z,5.65
2024-04-19T14:00:30.154Z,3.20
2024-04-19T14:02:57.117Z,4.13
2024-04-19T14:05:24.181Z,6.50
2024-04-19T14:07:51.150Z,4.35
2024-04-19T14:10:18.709Z,3.85
2024-04-19T14:12:59.553Z,4.05
2024-04-19T14:15:27.621Z,6.55
2024-04-19T14:17:55.315Z,7.60
2024-04-19T14:20:24.527Z,5.32
2024-04-19T14:22:51.662Z,6.07
2024-04-19T14:25:18.410Z,6.60
2024-04-19T14:27:45.888Z,8.48
2024-04-19T14:30:13.069Z,3.97
2024-04-19T14:32:40.127Z,5.78
2024-04-19T14:35:10.446Z,5.68
2024-04-19T14:37:37.257Z,4.85
2024-04-19T14:40:04.582Z,5.18
2024-04-19T14:42:32.627Z,3.25
2024-04-19T14:44:59.555Z,6.53
2024-04-19T14:47:27.222Z,5.90
2024-04-19T14:49:54.247Z,4.03
2024-04-19T14:52:21.011Z,3.10
2024-04-19T14:54:50.533Z,2.75
2024-04-19T14:57:19.093Z,2.92
2024-04-19T14:59:46.872Z,3.20
2024-04-19T15:02:13.829Z,4.00
2024-04-19T15:04:40.848Z,2.97
2024-04-19T15:07:09.900Z,5.60
2024-04-19T15:09:36.807Z,3.10
2024-04-19T15:12:03.744Z,2.10
2024-04-19T15:14:30.556Z,2.35
2024-04-19T15:17:00.507Z,3.20
2024-04-19T15:19:27.414Z,2.08
2024-04-19T15:21:55.199Z,3.80
2024-04-19T15:24:22.653Z,1.33
2024-04-19T15:26:51.672Z,1.95
2024-04-19T15:29:18.669Z,1.98
2024-04-19T15:31:45.854Z,3.17
2024-04-19T15:34:39.911Z,3.63
2024-04-19T15:37:00.742Z,2.83
2024-04-19T15:39:27.793Z,2.10
2024-04-19T15:41:58.774Z,2.90
2024-04-19T15:44:28.173Z,3.53
2024-04-19T15:46:55.800Z,1.95
2024-04-19T15:49:22.984Z,2.33
2024-04-19T15:51:50.373Z,4.53
2024-04-19T15:54:17.329Z,3.67
2024-04-19T15:56:44.021Z,3.28
2024-04-19T15:59:11.031Z,2.35
2024-04-19T16:01:40.839Z,2.78
2024-04-19T16:04:09.297Z,3.75
2024-04-19T16:06:40.644Z,5.72
2024-04-19T16:09:08.057Z,3.38
2024-04-19T16:11:35.033Z,3.25
2024-04-19T16:14:01.777Z,2.85
2024-04-19T16:16:28.737Z,3.67
2024-04-19T16:18:56.341Z,2.25
2024-04-19T16:21:23.315Z,2.67
2024-04-19T16:23:50.276Z,2.28
2024-04-19T16:26:17.471Z,2.22
2024-04-19T16:28:44.905Z,3.80
2024-04-19T16:31:12.012Z,3.00
2024-04-19T16:33:39.717Z,2.35
2024-04-19T16:36:07.374Z,2.05
2024-04-19T16:38:34.575Z,1.92
2024-04-19T16:41:01.858Z,2.65
2024-04-19T16:43:29.629Z,1.88
2024-04-19T16:45:56.650Z,1.63
2024-04-19T16:48:23.609Z,2.28
2024-04-19T16:50:50.622Z,2.63
2024-04-19T16:53:17.408Z,1.15
2024-04-19T16:55:44.352Z,1.27
2024-04-19T16:58:11.542Z,1.38
2024-04-19T17:00:40.530Z,2.05
2024-04-19T17:03:12.124Z,1.10
2024-04-19T17:05:39.200Z,0.85
2024-04-19T17:08:08.250Z,0.80
2024-04-19T17:10:35.466Z,0.80
2024-04-19T17:13:03.068Z,1.00
2024-04-19T17:15:29.970Z,0.80
2024-04-19T17:17:59.801Z,0.80
2024-04-19T17:20:26.699Z,0.90
2024-04-19T17:22:53.868Z,0.75
2024-04-19T17:25:20.714Z,0.70
2024-04-19T17:27:48.656Z,0.77
2024-04-19T17:30:15.817Z,0.93
2024-04-19T17:32:43.344Z,1.80
2024-04-19T17:35:12.300Z,0.75
2024-04-19T17:37:39.715Z,0.50
2024-04-19T17:40:08.869Z,0.40
2024-04-19T17:42:35.749Z,0.95
2024-04-19T17:45:02.620Z,0.77
2024-04-19T17:47:31.772Z,0.70
2024-04-19T17:49:58.754Z,0.82
2024-04-19T17:52:25.524Z,1.30
2024-04-19T17:54:52.320Z,0.88
2024-04-19T17:57:19.080Z,1.48
2024-04-19T17:59:45.885Z,0.73
2024-04-19T18:02:14.563Z,1.00
2024-04-19T18:04:41.525Z,1.10
2024-04-19T18:07:08.523Z,1.20
2024-04-19T18:09:35.330Z,1.63
2024-04-19T18:12:02.199Z,0.82
2024-04-19T18:14:29.164Z,0.93
2024-04-19T18:16:57.472Z,0.80
2024-04-19T18:19:26.914Z,1.50
2024-04-19T18:21:54.166Z,1.05
2024-04-19T18:24:28.027Z,1.13
2024-04-19T18:26:55.263Z,0.50
2024-04-19T18:29:25.328Z,0.80
2024-04-19T18:31:52.242Z,1.42
2024-04-19T18:34:20.646Z,0.63
2024-04-19T18:36:48.905Z,0.60
2024-04-19T18:39:16.636Z,0.52
2024-04-19T18:41:44.895Z,0.90
2024-04-19T18:44:12.220Z,3.53
2024-04-19T18:46:38.958Z,1.42
2024-04-19T18:49:10.350Z,2.13
2024-04-19T18:51:37.421Z,1.38
2024-04-19T18:54:04.537Z,1.15
2024-04-19T18:56:31.606Z,0.73
2024-04-19T18:58:58.752Z,1.13
2024-04-19T19:01:25.883Z,1.65
2024-04-19T19:03:53.698Z,1.05
2024-04-19T19:06:21.688Z,1.15
2024-04-19T19:08:48.667Z,1.15
2024-04-19T19:11:16.606Z,1.85
2024-04-19T19:13:45.181Z,1.73
2024-04-19T19:16:14.546Z,0.80
2024-04-19T19:18:44.518Z,0.60
2024-04-19T19:21:12.478Z,0.88
2024-04-19T19:23:39.832Z,0.70
2024-04-19T19:26:13.172Z,0.85
2024-04-19T19:28:40.501Z,1.98
2024-04-19T19:31:08.925Z,1.73
2024-04-19T19:33:36.519Z,1.88
2024-04-19T19:36:04.432Z,1.83
2024-04-19T19:38:34.413Z,2.10
2024-04-19T19:41:01.678Z,1.90
2024-04-19T19:43:35.560Z,2.63
2024-04-19T19:46:05.421Z,1.88
2024-04-19T19:48:35.342Z,2.22
2024-04-19T19:51:05.413Z,1.70
2024-04-19T19:53:32.522Z,2.08
2024-04-19T19:55:59.325Z,2.45
2024-04-19T19:58:27.058Z,2.08
2024-04-19T20:01:12.924Z,1.92
2024-04-19T20:03:58.835Z,2.15
2024-04-19T20:06:25.794Z,2.30
2024-04-19T20:08:53.157Z,2.08
2024-04-19T20:11:20.525Z,4.20
2024-04-19T20:13:47.536Z,2.25
2024-04-19T20:16:16.970Z,2.55
2024-04-19T20:18:43.935Z,2.40
2024-04-19T20:21:11.184Z,5.18
2024-04-19T20:23:38.115Z,3.50
2024-04-19T20:26:05.985Z,2.58
2024-04-19T20:28:32.959Z,2.97
2024-04-19T20:31:00.002Z,2.90
2024-04-19T20:33:27.076Z,3.13
2024-04-19T20:35:54.017Z,3.75
2024-04-19T20:38:26.009Z,3.75
2024-04-19T20:40:54.135Z,4.00
2024-04-19T20:43:21.447Z,3.35
2024-04-19T20:45:48.586Z,4.20
2024-04-19T20:48:19.085Z,3.72
2024-04-19T20:50:50.215Z,3.53
2024-04-19T20:53:17.270Z,4.95
2024-04-19T20:55:44.325Z,3.70
2024-04-19T20:58:11.122Z,4.00
2024-04-19T21:00:38.696Z,4.00
2024-04-19T21:03:05.907Z,3.75
2024-04-19T21:05:33.514Z,4.30
2024-04-19T21:08:00.809Z,6.43
2024-04-19T21:10:28.100Z,3.85
2024-04-19T21:12:55.275Z,3.92
2024-04-19T21:15:22.532Z,5.13
2024-04-19T21:17:49.315Z,3.92
2024-04-19T21:20:17.051Z,3.60
2024-04-19T21:22:44.216Z,6.00
2024-04-19T21:25:11.037Z,5.15
2024-04-19T21:27:38.050Z,4.95
2024-04-19T21:30:05.437Z,4.22
2024-04-19T21:32:33.388Z,4.32
2024-04-19T21:35:02.184Z,4.15
2024-04-19T21:37:29.752Z,4.45
2024-04-19T21:39:57.445Z,4.38
2024-04-19T21:42:24.409Z,3.53
2024-04-19T21:44:55.369Z,3.92
2024-04-19T21:47:22.723Z,4.03
2024-04-19T21:49:50.722Z,3.45
2024-04-19T21:52:17.603Z,2.70
2024-04-19T21:54:44.753Z,2.90
2024-04-19T21:57:11.546Z,3.45
2024-04-19T21:59:38.464Z,3.05
2024-04-19T22:02:05.609Z,4.82
2024-04-19T22:04:32.732Z,2.80
2024-04-19T22:07:00.008Z,2.33
2024-04-19T22:09:28.402Z,2.40
2024-04-19T22:11:55.230Z,2.47
2024-04-19T22:14:22.067Z,3.03
2024-04-19T22:16:48.971Z,2.50
2024-04-19T22:19:15.840Z,3.25
2024-04-19T22:21:42.757Z,2.00
2024-04-19T22:24:09.641Z,3.22
2024-04-19T22:26:40.023Z,3.80
2024-04-19T22:29:07.757Z,2.30
2024-04-19T22:31:38.275Z,3.83
2024-04-19T22:34:05.036Z,2.30
2024-04-19T22:36:34.062Z,2.90
2024-04-19T22:39:00.920Z,1.98
2024-04-19T22:41:28.241Z,2.88
2024-04-19T22:44:06.722Z,2.25
2024-04-19T22:46:33.582Z,2.42
2024-04-19T22:49:00.501Z,2.83
2024-04-19T22:51:27.541Z,2.47
2024-04-19T22:53:54.337Z,3.15
2024-04-19T22:56:21.180Z,2.00
2024-04-19T22:58:49.367Z,2.28
2024-04-19T23:01:16.400Z,1.63
2024-04-19T23:03:43.251Z,2.13
2024-04-19T23:06:10.882Z,2.28
2024-04-19T23:08:37.990Z,2.35
2024-04-19T23:11:05.763Z,2.60
2024-04-19T23:13:33.046Z,2.25
2024-04-19T23:15:59.949Z,1.50
2024-04-19T23:18:26.866Z,1.80
2024-04-19T23:21:02.629Z,1.92
2024-04-19T23:23:30.728Z,2.13
2024-04-19T23:26:04.784Z,2.03
2024-04-19T23:28:33.113Z,1.50
2024-04-19T23:31:00.885Z,3.58
2024-04-19T23:33:30.492Z,2.67
2024-04-19T23:35:58.366Z,1.50
2024-04-19T23:38:25.817Z,1.70
2024-04-19T23:40:52.904Z,2.05
2024-04-19T23:43:20.236Z,2.60
2024-04-19T23:45:48.404Z,2.33
2024-04-19T23:48:15.379Z,2.10
2024-04-19T23:50:42.234Z,1.58
2024-04-19T23:53:09.040Z,2.20
2024-04-19T23:55:35.800Z,2.08
2024-04-19T23:58:02.946Z,1.40
